sensor_id;sensor_type;location;lat;lon;timestamp;temperature;humidity
6118;DHT22;3089;48.202;11.510;2023-05-29T00:00:32;17.10;99.90
6118;DHT22;3089;48.202;11.510;2023-05-29T00:03:00;17.00;99.90
6118;DHT22;3089;48.202;11.510;2023-05-29T00:05:28;17.00;99.90
6118;DHT22;3089;48.202;11.510;2023-05-29T00:07:56;16.90;99.90
6118;DHT22;3089;48.202;11.510;2023-05-29T00:10:24;16.90;99.90
6118;DHT22;3089;48.202;11.510;2023-05-29T00:12:52;16.90;99.90
6118;DHT22;3089;48.202;11.510;2023-05-29T00:15:23;16.80;99.90
6118;DHT22;3089;48.202;11.510;2023-05-29T00:17:51;16.80;99.90
6118;DHT22;3089;48.202;11.510;2023-05-29T00:20:19;16.80;99.90
6118;DHT22;3089;48.202;11.510;2023-05-29T00:22:47;16.70;99.90
6118;DHT22;3089;48.202;11.510;2023-05-29T00:25:16;16.70;99.90
6118;DHT22;3089;48.202;11.510;2023-05-29T00:27:44;16.70;99.90
6118;DHT22;3089;48.202;11.510;2023-05-29T00:30:12;16.70;99.90
6118;DHT22;3089;48.202;11.510;2023-05-29T00:32:41;16.60;99.90
6118;DHT22;3089;48.202;11.510;2023-05-29T00:35:09;16.60;99.90
6118;DHT22;3089;48.202;11.510;2023-05-29T00:37:37;16.50;99.90
6118;DHT22;3089;48.202;11.510;2023-05-29T00:40:06;16.50;99.90
6118;DHT22;3089;48.202;11.510;2023-05-29T00:42:35;16.60;99.90
6118;DHT22;3089;48.202;11.510;2023-05-29T00:45:04;16.60;99.90
6118;DHT22;3089;48.202;11.510;2023-05-29T00:47:32;16.50;99.90
6118;DHT22;3089;48.202;11.510;2023-05-29T00:50:02;16.50;99.90
6118;DHT22;3089;48.202;11.510;2023-05-29T00:52:30;16.40;99.90
6118;DHT22;3089;48.202;11.510;2023-05-29T00:54:58;16.40;99.90
6118;DHT22;3089;48.202;11.510;2023-05-29T00:57:28;16.30;99.90
6118;DHT22;3089;48.202;11.510;2023-05-29T00:59:57;16.30;99.90
6118;DHT22;3089;48.202;11.510;2023-05-29T01:02:26;16.30;99.90
6118;DHT22;3089;48.202;11.510;2023-05-29T01:04:56;16.30;99.90
6118;DHT22;3089;48.202;11.510;2023-05-29T01:07:26;16.20;99.90
6118;DHT22;3089;48.202;11.510;2023-05-29T01:09:55;16.20;99.90
6118;DHT22;3089;48.202;11.510;2023-05-29T01:12:30;16.20;99.90
6118;DHT22;3089;48.202;11.510;2023-05-29T01:15:21;16.20;99.90
6118;DHT22;3089;48.202;11.510;2023-05-29T01:18:12;16.10;99.90
6118;DHT22;3089;48.202;11.510;2023-05-29T01:20:48;16.10;99.90
6118;DHT22;3089;48.202;11.510;2023-05-29T01:23:55;16.00;99.90
6118;DHT22;3089;48.202;11.510;2023-05-29T01:26:55;16.00;99.90
6118;DHT22;3089;48.202;11.510;2023-05-29T01:29:26;16.00;99.90
6118;DHT22;3089;48.202;11.510;2023-05-29T01:31:56;16.00;99.90
6118;DHT22;3089;48.202;11.510;2023-05-29T01:34:24;15.90;99.90
6118;DHT22;3089;48.202;11.510;2023-05-29T01:36:52;15.90;99.90
6118;DHT22;3089;48.202;11.510;2023-05-29T01:39:20;15.90;99.90
6118;DHT22;3089;48.202;11.510;2023-05-29T01:41:50;15.80;99.90
6118;DHT22;3089;48.202;11.510;2023-05-29T01:44:19;15.80;99.90
6118;DHT22;3089;48.202;11.510;2023-05-29T01:46:48;15.70;99.90
6118;DHT22;3089;48.202;11.510;2023-05-29T01:49:16;15.70;99.90
6118;DHT22;3089;48.202;11.510;2023-05-29T01:51:45;15.70;99.90
6118;DHT22;3089;48.202;11.510;2023-05-29T01:54:12;15.70;99.90
6118;DHT22;3089;48.202;11.510;2023-05-29T01:56:42;15.60;99.90
6118;DHT22;3089;48.202;11.510;2023-05-29T01:59:13;15.60;99.90
6118;DHT22;3089;48.202;11.510;2023-05-29T02:01:41;15.60;99.90
6118;DHT22;3089;48.202;11.510;2023-05-29T02:04:09;15.50;99.90
6118;DHT22;3089;48.202;11.510;2023-05-29T02:06:37;15.50;99.90
6118;DHT22;3089;48.202;11.510;2023-05-29T02:09:05;15.50;99.90
6118;DHT22;3089;48.202;11.510;2023-05-29T02:11:33;15.40;99.90
6118;DHT22;3089;48.202;11.510;2023-05-29T02:14:01;15.40;99.90
6118;DHT22;3089;48.202;11.510;2023-05-29T02:16:32;15.40;99.90
6118;DHT22;3089;48.202;11.510;2023-05-29T02:19:00;15.30;99.90
6118;DHT22;3089;48.202;11.510;2023-05-29T02:21:29;15.30;99.90
6118;DHT22;3089;48.202;11.510;2023-05-29T02:23:58;15.40;99.90
6118;DHT22;3089;48.202;11.510;2023-05-29T02:26:25;15.30;99.90
6118;DHT22;3089;48.202;11.510;2023-05-29T02:28:53;15.30;99.90
6118;DHT22;3089;48.202;11.510;2023-05-29T02:31:21;15.30;99.90
6118;DHT22;3089;48.202;11.510;2023-05-29T02:33:50;15.20;99.90
6118;DHT22;3089;48.202;11.510;2023-05-29T02:36:18;15.20;99.90
6118;DHT22;3089;48.202;11.510;2023-05-29T02:38:46;15.20;99.90
6118;DHT22;3089;48.202;11.510;2023-05-29T02:41:14;15.20;99.90
6118;DHT22;3089;48.202;11.510;2023-05-29T02:43:42;15.10;99.90
6118;DHT22;3089;48.202;11.510;2023-05-29T02:46:10;15.10;99.90
6118;DHT22;3089;48.202;11.510;2023-05-29T02:48:38;15.00;99.90
6118;DHT22;3089;48.202;11.510;2023-05-29T02:51:07;15.10;99.90
6118;DHT22;3089;48.202;11.510;2023-05-29T02:53:35;15.00;99.90
6118;DHT22;3089;48.202;11.510;2023-05-29T02:56:03;15.00;99.90
6118;DHT22;3089;48.202;11.510;2023-05-29T02:58:31;14.90;99.90
6118;DHT22;3089;48.202;11.510;2023-05-29T03:00:59;14.90;99.90
6118;DHT22;3089;48.202;11.510;2023-05-29T03:03:29;14.80;99.90
6118;DHT22;3089;48.202;11.510;2023-05-29T03:05:57;14.80;99.90
6118;DHT22;3089;48.202;11.510;2023-05-29T03:08:26;14.80;99.90
6118;DHT22;3089;48.202;11.510;2023-05-29T03:10:55;14.80;99.90
6118;DHT22;3089;48.202;11.510;2023-05-29T03:13:23;14.70;99.90
6118;DHT22;3089;48.202;11.510;2023-05-29T03:15:51;14.70;99.90
6118;DHT22;3089;48.202;11.510;2023-05-29T03:18:23;14.70;99.90
6118;DHT22;3089;48.202;11.510;2023-05-29T03:20:51;14.70;99.90
6118;DHT22;3089;48.202;11.510;2023-05-29T03:23:19;14.70;99.90
6118;DHT22;3089;48.202;11.510;2023-05-29T03:25:48;14.60;99.90
6118;DHT22;3089;48.202;11.510;2023-05-29T03:28:16;14.60;99.90
6118;DHT22;3089;48.202;11.510;2023-05-29T03:30:44;14.50;99.90
6118;DHT22;3089;48.202;11.510;2023-05-29T03:33:12;14.60;99.90
6118;DHT22;3089;48.202;11.510;2023-05-29T03:35:39;14.50;99.90
6118;DHT22;3089;48.202;11.510;2023-05-29T03:38:07;14.50;99.90
6118;DHT22;3089;48.202;11.510;2023-05-29T03:40:35;14.50;99.90
6118;DHT22;3089;48.202;11.510;2023-05-29T03:43:04;14.50;99.90
6118;DHT22;3089;48.202;11.510;2023-05-29T03:45:32;14.50;99.90
6118;DHT22;3089;48.202;11.510;2023-05-29T03:48:00;14.50;99.90
6118;DHT22;3089;48.202;11.510;2023-05-29T03:50:28;14.50;99.90
6118;DHT22;3089;48.202;11.510;2023-05-29T03:52:56;14.40;99.90
6118;DHT22;3089;48.202;11.510;2023-05-29T03:55:26;14.40;99.90
6118;DHT22;3089;48.202;11.510;2023-05-29T03:57:54;14.40;99.90
6118;DHT22;3089;48.202;11.510;2023-05-29T04:00:23;14.50;99.90
6118;DHT22;3089;48.202;11.510;2023-05-29T04:02:52;14.40;99.90
6118;DHT22;3089;48.202;11.510;2023-05-29T04:05:20;14.40;99.90
6118;DHT22;3089;48.202;11.510;2023-05-29T04:07:48;14.30;99.90
6118;DHT22;3089;48.202;11.510;2023-05-29T04:10:16;14.30;99.90
6118;DHT22;3089;48.202;11.510;2023-05-29T04:12:44;14.40;99.90
6118;DHT22;3089;48.202;11.510;2023-05-29T04:15:11;14.30;99.90
6118;DHT22;3089;48.202;11.510;2023-05-29T04:17:41;14.30;99.90
6118;DHT22;3089;48.202;11.510;2023-05-29T04:20:09;14.40;99.90
6118;DHT22;3089;48.202;11.510;2023-05-29T04:22:38;14.40;99.90
6118;DHT22;3089;48.202;11.510;2023-05-29T04:25:06;14.30;99.90
6118;DHT22;3089;48.202;11.510;2023-05-29T04:27:34;14.40;99.90
6118;DHT22;3089;48.202;11.510;2023-05-29T04:30:05;14.40;99.90
6118;DHT22;3089;48.202;11.510;2023-05-29T04:32:33;14.40;99.90
6118;DHT22;3089;48.202;11.510;2023-05-29T04:35:02;14.40;99.90
6118;DHT22;3089;48.202;11.510;2023-05-29T04:37:31;14.40;99.90
6118;DHT22;3089;48.202;11.510;2023-05-29T04:40:05;14.40;99.90
6118;DHT22;3089;48.202;11.510;2023-05-29T04:42:35;14.40;99.90
6118;DHT22;3089;48.202;11.510;2023-05-29T04:45:03;13.70;99.90
6118;DHT22;3089;48.202;11.510;2023-05-29T04:47:32;13.60;99.90
6118;DHT22;3089;48.202;11.510;2023-05-29T04:50:01;15.40;99.90
6118;DHT22;3089;48.202;11.510;2023-05-29T04:52:29;16.30;99.90
6118;DHT22;3089;48.202;11.510;2023-05-29T04:54:57;16.70;99.90
6118;DHT22;3089;48.202;11.510;2023-05-29T04:57:25;17.00;99.90
6118;DHT22;3089;48.202;11.510;2023-05-29T04:59:53;17.20;99.90
6118;DHT22;3089;48.202;11.510;2023-05-29T05:02:20;17.30;99.90
6118;DHT22;3089;48.202;11.510;2023-05-29T05:04:48;17.50;99.90
6118;DHT22;3089;48.202;11.510;2023-05-29T05:07:18;17.70;99.90
6118;DHT22;3089;48.202;11.510;2023-05-29T05:09:46;17.80;99.90
6118;DHT22;3089;48.202;11.510;2023-05-29T05:12:13;18.00;99.90
6118;DHT22;3089;48.202;11.510;2023-05-29T05:14:41;18.20;99.90
6118;DHT22;3089;48.202;11.510;2023-05-29T05:17:09;18.40;99.90
6118;DHT22;3089;48.202;11.510;2023-05-29T05:19:37;18.60;99.90
6118;DHT22;3089;48.202;11.510;2023-05-29T05:22:05;18.70;99.90
6118;DHT22;3089;48.202;11.510;2023-05-29T05:24:34;18.80;99.90
6118;DHT22;3089;48.202;11.510;2023-05-29T05:27:03;19.00;99.90
6118;DHT22;3089;48.202;11.510;2023-05-29T05:29:31;19.50;99.90
6118;DHT22;3089;48.202;11.510;2023-05-29T05:31:59;19.80;99.90
6118;DHT22;3089;48.202;11.510;2023-05-29T05:34:27;20.20;99.90
6118;DHT22;3089;48.202;11.510;2023-05-29T05:36:55;20.10;99.90
6118;DHT22;3089;48.202;11.510;2023-05-29T05:39:23;20.30;99.90
6118;DHT22;3089;48.202;11.510;2023-05-29T05:41:52;20.20;99.90
6118;DHT22;3089;48.202;11.510;2023-05-29T05:44:20;20.30;99.90
6118;DHT22;3089;48.202;11.510;2023-05-29T05:46:47;20.40;99.90
6118;DHT22;3089;48.202;11.510;2023-05-29T05:49:15;20.70;99.90
6118;DHT22;3089;48.202;11.510;2023-05-29T05:51:43;20.60;99.90
6118;DHT22;3089;48.202;11.510;2023-05-29T05:54:11;21.50;99.90
6118;DHT22;3089;48.202;11.510;2023-05-29T05:56:39;20.50;99.90
6118;DHT22;3089;48.202;11.510;2023-05-29T05:59:08;21.10;99.90
6118;DHT22;3089;48.202;11.510;2023-05-29T06:01:36;21.70;99.90
6118;DHT22;3089;48.202;11.510;2023-05-29T06:04:04;21.30;99.90
6118;DHT22;3089;48.202;11.510;2023-05-29T06:06:32;21.20;99.90
6118;DHT22;3089;48.202;11.510;2023-05-29T06:09:00;21.80;99.90
6118;DHT22;3089;48.202;11.510;2023-05-29T06:11:28;21.60;99.90
6118;DHT22;3089;48.202;11.510;2023-05-29T06:13:56;22.50;99.90
6118;DHT22;3089;48.202;11.510;2023-05-29T06:16:26;22.80;99.90
6118;DHT22;3089;48.202;11.510;2023-05-29T06:18:54;22.60;99.90
6118;DHT22;3089;48.202;11.510;2023-05-29T06:21:22;22.40;99.90
6118;DHT22;3089;48.202;11.510;2023-05-29T06:23:50;22.70;99.90
6118;DHT22;3089;48.202;11.510;2023-05-29T06:26:17;23.40;99.90
6118;DHT22;3089;48.202;11.510;2023-05-29T06:28:45;23.10;99.90
6118;DHT22;3089;48.202;11.510;2023-05-29T06:31:13;21.50;99.40
6118;DHT22;3089;48.202;11.510;2023-05-29T06:33:44;21.50;99.90
6118;DHT22;3089;48.202;11.510;2023-05-29T06:36:12;22.00;99.90
6118;DHT22;3089;48.202;11.510;2023-05-29T06:38:40;23.10;99.90
6118;DHT22;3089;48.202;11.510;2023-05-29T06:41:07;23.40;99.90
6118;DHT22;3089;48.202;11.510;2023-05-29T06:43:35;23.10;99.90
6118;DHT22;3089;48.202;11.510;2023-05-29T06:46:04;21.50;99.90
6118;DHT22;3089;48.202;11.510;2023-05-29T06:48:32;22.80;99.90
6118;DHT22;3089;48.202;11.510;2023-05-29T06:51:02;23.10;99.90
6118;DHT22;3089;48.202;11.510;2023-05-29T06:53:35;22.80;99.90
6118;DHT22;3089;48.202;11.510;2023-05-29T06:56:03;23.80;99.90
6118;DHT22;3089;48.202;11.510;2023-05-29T06:58:32;22.90;99.90
6118;DHT22;3089;48.202;11.510;2023-05-29T07:01:00;24.30;99.90
6118;DHT22;3089;48.202;11.510;2023-05-29T07:03:33;24.30;99.80
6118;DHT22;3089;48.202;11.510;2023-05-29T07:06:04;24.40;99.90
6118;DHT22;3089;48.202;11.510;2023-05-29T07:08:32;24.40;99.90
6118;DHT22;3089;48.202;11.510;2023-05-29T07:11:01;24.70;99.90
6118;DHT22;3089;48.202;11.510;2023-05-29T07:13:29;24.50;99.90
6118;DHT22;3089;48.202;11.510;2023-05-29T07:15:57;24.20;99.40
6118;DHT22;3089;48.202;11.510;2023-05-29T07:18:30;24.30;99.90
6118;DHT22;3089;48.202;11.510;2023-05-29T07:21:00;25.30;98.90
6118;DHT22;3089;48.202;11.510;2023-05-29T07:23:30;25.00;99.90
6118;DHT22;3089;48.202;11.510;2023-05-29T07:25:58;24.60;99.50
6118;DHT22;3089;48.202;11.510;2023-05-29T07:28:25;24.10;99.00
6118;DHT22;3089;48.202;11.510;2023-05-29T07:30:53;25.00;99.90
6118;DHT22;3089;48.202;11.510;2023-05-29T07:33:21;24.80;99.90
6118;DHT22;3089;48.202;11.510;2023-05-29T07:35:49;24.90;99.70
6118;DHT22;3089;48.202;11.510;2023-05-29T07:38:17;24.00;99.80
6118;DHT22;3089;48.202;11.510;2023-05-29T07:40:46;22.50;99.90
6118;DHT22;3089;48.202;11.510;2023-05-29T07:43:14;21.80;99.90
6118;DHT22;3089;48.202;11.510;2023-05-29T07:45:42;23.00;99.90
6118;DHT22;3089;48.202;11.510;2023-05-29T07:48:10;22.60;99.90
6118;DHT22;3089;48.202;11.510;2023-05-29T07:50:38;22.20;99.90
6118;DHT22;3089;48.202;11.510;2023-05-29T07:53:06;22.60;99.90
6118;DHT22;3089;48.202;11.510;2023-05-29T07:55:34;21.90;99.90
6118;DHT22;3089;48.202;11.510;2023-05-29T07:58:03;21.30;99.90
6118;DHT22;3089;48.202;11.510;2023-05-29T08:00:31;21.30;99.90
6118;DHT22;3089;48.202;11.510;2023-05-29T08:02:59;21.00;99.90
6118;DHT22;3089;48.202;11.510;2023-05-29T08:05:30;21.00;99.90
6118;DHT22;3089;48.202;11.510;2023-05-29T08:07:58;20.80;99.90
6118;DHT22;3089;48.202;11.510;2023-05-29T08:10:26;20.80;99.90
6118;DHT22;3089;48.202;11.510;2023-05-29T08:12:54;20.90;99.90
6118;DHT22;3089;48.202;11.510;2023-05-29T08:15:23;21.20;99.90
6118;DHT22;3089;48.202;11.510;2023-05-29T08:17:53;20.80;99.90
6118;DHT22;3089;48.202;11.510;2023-05-29T08:20:21;20.90;99.90
6118;DHT22;3089;48.202;11.510;2023-05-29T08:22:49;20.80;99.90
6118;DHT22;3089;48.202;11.510;2023-05-29T08:25:17;20.80;99.90
6118;DHT22;3089;48.202;11.510;2023-05-29T08:27:44;20.90;99.90
6118;DHT22;3089;48.202;11.510;2023-05-29T08:30:13;20.80;99.90
6118;DHT22;3089;48.202;11.510;2023-05-29T08:32:42;21.10;99.90
6118;DHT22;3089;48.202;11.510;2023-05-29T08:35:10;20.90;99.90
6118;DHT22;3089;48.202;11.510;2023-05-29T08:37:38;20.80;99.90
6118;DHT22;3089;48.202;11.510;2023-05-29T08:40:07;21.00;99.90
6118;DHT22;3089;48.202;11.510;2023-05-29T08:42:39;21.00;99.90
6118;DHT22;3089;48.202;11.510;2023-05-29T08:45:13;20.80;99.90
6118;DHT22;3089;48.202;11.510;2023-05-29T08:47:43;21.10;99.90
6118;DHT22;3089;48.202;11.510;2023-05-29T08:50:13;21.50;99.90
6118;DHT22;3089;48.202;11.510;2023-05-29T08:52:43;22.40;99.90
6118;DHT22;3089;48.202;11.510;2023-05-29T08:55:11;22.90;99.90
6118;DHT22;3089;48.202;11.510;2023-05-29T08:57:39;21.90;99.90
6118;DHT22;3089;48.202;11.510;2023-05-29T09:00:11;21.60;99.90
6118;DHT22;3089;48.202;11.510;2023-05-29T09:02:40;22.30;99.90
6118;DHT22;3089;48.202;11.510;2023-05-29T09:05:10;22.20;99.90
6118;DHT22;3089;48.202;11.510;2023-05-29T09:07:39;21.90;99.90
6118;DHT22;3089;48.202;11.510;2023-05-29T09:10:09;23.30;99.90
6118;DHT22;3089;48.202;11.510;2023-05-29T09:12:37;23.60;99.90
6118;DHT22;3089;48.202;11.510;2023-05-29T09:15:17;23.00;99.90
6118;DHT22;3089;48.202;11.510;2023-05-29T09:17:50;24.20;99.90
6118;DHT22;3089;48.202;11.510;2023-05-29T09:20:22;24.60;99.90
6118;DHT22;3089;48.202;11.510;2023-05-29T09:22:55;23.60;99.70
6118;DHT22;3089;48.202;11.510;2023-05-29T09:25:24;23.50;99.90
6118;DHT22;3089;48.202;11.510;2023-05-29T09:27:55;23.90;99.90
6118;DHT22;3089;48.202;11.510;2023-05-29T09:30:35;23.80;99.90
6118;DHT22;3089;48.202;11.510;2023-05-29T09:33:03;24.10;99.90
6118;DHT22;3089;48.202;11.510;2023-05-29T09:35:37;24.10;99.90
6118;DHT22;3089;48.202;11.510;2023-05-29T09:38:07;24.10;99.90
6118;DHT22;3089;48.202;11.510;2023-05-29T09:40:37;23.70;99.90
6118;DHT22;3089;48.202;11.510;2023-05-29T09:43:08;22.90;99.90
6118;DHT22;3089;48.202;11.510;2023-05-29T09:45:37;23.70;99.90
6118;DHT22;3089;48.202;11.510;2023-05-29T09:48:07;23.70;99.90
6118;DHT22;3089;48.202;11.510;2023-05-29T09:50:37;24.00;99.90
6118;DHT22;3089;48.202;11.510;2023-05-29T09:53:15;24.30;99.90
6118;DHT22;3089;48.202;11.510;2023-05-29T09:55:46;24.20;99.70
6118;DHT22;3089;48.202;11.510;2023-05-29T09:58:14;23.50;99.80
6118;DHT22;3089;48.202;11.510;2023-05-29T10:00:44;24.40;99.90
6118;DHT22;3089;48.202;11.510;2023-05-29T10:03:12;24.10;98.50
6118;DHT22;3089;48.202;11.510;2023-05-29T10:05:42;24.00;99.90
6118;DHT22;3089;48.202;11.510;2023-05-29T10:08:13;23.90;99.00
6118;DHT22;3089;48.202;11.510;2023-05-29T10:10:44;23.60;97.80
6118;DHT22;3089;48.202;11.510;2023-05-29T10:13:14;23.80;98.80
6118;DHT22;3089;48.202;11.510;2023-05-29T10:15:45;23.50;97.80
6118;DHT22;3089;48.202;11.510;2023-05-29T10:18:21;22.60;97.10
6118;DHT22;3089;48.202;11.510;2023-05-29T10:20:54;23.60;98.40
6118;DHT22;3089;48.202;11.510;2023-05-29T10:23:25;24.00;97.70
6118;DHT22;3089;48.202;11.510;2023-05-29T10:26:09;24.20;99.00
6118;DHT22;3089;48.202;11.510;2023-05-29T10:28:42;23.70;99.20
6118;DHT22;3089;48.202;11.510;2023-05-29T10:31:17;23.60;99.90
6118;DHT22;3089;48.202;11.510;2023-05-29T10:33:56;23.50;97.40
6118;DHT22;3089;48.202;11.510;2023-05-29T10:36:32;23.50;99.50
6118;DHT22;3089;48.202;11.510;2023-05-29T10:39:03;23.50;98.00
6118;DHT22;3089;48.202;11.510;2023-05-29T10:41:32;23.00;96.70
6118;DHT22;3089;48.202;11.510;2023-05-29T10:44:01;23.50;98.20
6118;DHT22;3089;48.202;11.510;2023-05-29T10:47:01;23.90;99.20
6118;DHT22;3089;48.202;11.510;2023-05-29T10:49:30;23.80;98.90
6118;DHT22;3089;48.202;11.510;2023-05-29T10:51:59;23.90;97.50
6118;DHT22;3089;48.202;11.510;2023-05-29T10:54:27;23.60;96.90
6118;DHT22;3089;48.202;11.510;2023-05-29T10:56:56;23.90;98.50
6118;DHT22;3089;48.202;11.510;2023-05-29T10:59:25;23.80;98.90
6118;DHT22;3089;48.202;11.510;2023-05-29T11:01:54;24.10;99.40
6118;DHT22;3089;48.202;11.510;2023-05-29T11:04:29;23.90;97.10
6118;DHT22;3089;48.202;11.510;2023-05-29T11:07:00;24.00;98.60
6118;DHT22;3089;48.202;11.510;2023-05-29T11:09:33;24.40;98.60
6118;DHT22;3089;48.202;11.510;2023-05-29T11:12:17;23.80;96.20
6118;DHT22;3089;48.202;11.510;2023-05-29T11:15:47;24.30;99.20
6118;DHT22;3089;48.202;11.510;2023-05-29T11:20:07;24.50;95.00
6118;DHT22;3089;48.202;11.510;2023-05-29T11:23:02;23.90;97.90
6118;DHT22;3089;48.202;11.510;2023-05-29T11:25:35;23.60;97.90
6118;DHT22;3089;48.202;11.510;2023-05-29T11:28:04;23.90;95.60
6118;DHT22;3089;48.202;11.510;2023-05-29T11:30:42;24.10;98.60
6118;DHT22;3089;48.202;11.510;2023-05-29T11:33:19;23.90;99.00
6118;DHT22;3089;48.202;11.510;2023-05-29T11:35:52;23.60;99.90
6118;DHT22;3089;48.202;11.510;2023-05-29T11:38:23;24.30;99.90
6118;DHT22;3089;48.202;11.510;2023-05-29T11:40:51;22.70;95.80
6118;DHT22;3089;48.202;11.510;2023-05-29T11:43:19;22.90;96.10
6118;DHT22;3089;48.202;11.510;2023-05-29T11:45:48;23.20;99.40
6118;DHT22;3089;48.202;11.510;2023-05-29T11:48:15;22.80;95.20
6118;DHT22;3089;48.202;11.510;2023-05-29T11:50:44;23.10;98.10
6118;DHT22;3089;48.202;11.510;2023-05-29T11:53:13;23.60;98.40
6118;DHT22;3089;48.202;11.510;2023-05-29T11:55:41;24.10;99.90
6118;DHT22;3089;48.202;11.510;2023-05-29T11:58:09;23.90;99.80
6118;DHT22;3089;48.202;11.510;2023-05-29T12:00:38;24.10;99.90
6118;DHT22;3089;48.202;11.510;2023-05-29T12:03:06;24.00;97.40
6118;DHT22;3089;48.202;11.510;2023-05-29T12:05:45;23.80;99.70
6118;DHT22;3089;48.202;11.510;2023-05-29T12:08:14;23.90;99.30
6118;DHT22;3089;48.202;11.510;2023-05-29T12:10:49;23.70;97.10
6118;DHT22;3089;48.202;11.510;2023-05-29T12:13:18;23.70;98.50
6118;DHT22;3089;48.202;11.510;2023-05-29T12:15:48;24.00;99.80
6118;DHT22;3089;48.202;11.510;2023-05-29T12:18:16;24.30;98.20
6118;DHT22;3089;48.202;11.510;2023-05-29T12:20:44;24.20;98.70
6118;DHT22;3089;48.202;11.510;2023-05-29T12:23:14;24.20;97.90
6118;DHT22;3089;48.202;11.510;2023-05-29T12:25:45;24.20;95.00
6118;DHT22;3089;48.202;11.510;2023-05-29T12:28:16;23.50;95.70
6118;DHT22;3089;48.202;11.510;2023-05-29T12:30:47;23.40;94.10
6118;DHT22;3089;48.202;11.510;2023-05-29T12:33:27;23.70;97.10
6118;DHT22;3089;48.202;11.510;2023-05-29T12:36:01;24.20;97.30
6118;DHT22;3089;48.202;11.510;2023-05-29T12:38:31;24.40;97.10
6118;DHT22;3089;48.202;11.510;2023-05-29T12:40:58;24.40;96.80
6118;DHT22;3089;48.202;11.510;2023-05-29T12:43:26;23.80;96.20
6118;DHT22;3089;48.202;11.510;2023-05-29T12:45:55;23.80;96.10
6118;DHT22;3089;48.202;11.510;2023-05-29T12:48:26;23.60;94.60
6118;DHT22;3089;48.202;11.510;2023-05-29T12:50:54;23.50;99.10
6118;DHT22;3089;48.202;11.510;2023-05-29T12:53:28;23.80;99.10
6118;DHT22;3089;48.202;11.510;2023-05-29T12:55:57;24.30;98.70
6118;DHT22;3089;48.202;11.510;2023-05-29T12:58:26;23.90;99.40
6118;DHT22;3089;48.202;11.510;2023-05-29T13:00:54;24.20;99.40
6118;DHT22;3089;48.202;11.510;2023-05-29T13:03:23;24.70;99.20
6118;DHT22;3089;48.202;11.510;2023-05-29T13:05:51;24.80;98.50
6118;DHT22;3089;48.202;11.510;2023-05-29T13:08:20;25.00;96.60
6118;DHT22;3089;48.202;11.510;2023-05-29T13:10:48;24.50;98.10
6118;DHT22;3089;48.202;11.510;2023-05-29T13:13:17;24.70;97.10
6118;DHT22;3089;48.202;11.510;2023-05-29T13:15:45;24.10;97.00
6118;DHT22;3089;48.202;11.510;2023-05-29T13:18:13;24.00;94.90
6118;DHT22;3089;48.202;11.510;2023-05-29T13:20:41;23.90;99.90
6118;DHT22;3089;48.202;11.510;2023-05-29T13:23:09;24.10;98.70
6118;DHT22;3089;48.202;11.510;2023-05-29T13:25:37;24.00;98.20
6118;DHT22;3089;48.202;11.510;2023-05-29T13:28:05;24.60;98.70
6118;DHT22;3089;48.202;11.510;2023-05-29T13:30:34;24.00;96.50
6118;DHT22;3089;48.202;11.510;2023-05-29T13:33:02;24.30;96.60
6118;DHT22;3089;48.202;11.510;2023-05-29T13:35:30;23.80;97.80
6118;DHT22;3089;48.202;11.510;2023-05-29T13:37:58;24.50;96.90
6118;DHT22;3089;48.202;11.510;2023-05-29T13:40:26;24.30;96.00
6118;DHT22;3089;48.202;11.510;2023-05-29T13:42:54;24.00;96.40
6118;DHT22;3089;48.202;11.510;2023-05-29T13:45:23;24.30;93.10
6118;DHT22;3089;48.202;11.510;2023-05-29T13:47:52;24.60;97.90
6118;DHT22;3089;48.202;11.510;2023-05-29T13:50:20;24.30;97.60
6118;DHT22;3089;48.202;11.510;2023-05-29T13:52:50;24.90;97.10
6118;DHT22;3089;48.202;11.510;2023-05-29T13:55:18;25.00;97.30
6118;DHT22;3089;48.202;11.510;2023-05-29T13:57:46;24.90;97.40
6118;DHT22;3089;48.202;11.510;2023-05-29T14:00:14;25.00;98.30
6118;DHT22;3089;48.202;11.510;2023-05-29T14:02:42;24.80;98.70
6118;DHT22;3089;48.202;11.510;2023-05-29T14:05:12;24.40;95.50
6118;DHT22;3089;48.202;11.510;2023-05-29T14:07:39;24.00;97.30
6118;DHT22;3089;48.202;11.510;2023-05-29T14:10:08;23.90;97.30
6118;DHT22;3089;48.202;11.510;2023-05-29T14:12:38;24.80;98.40
6118;DHT22;3089;48.202;11.510;2023-05-29T14:15:08;24.80;98.20
6118;DHT22;3089;48.202;11.510;2023-05-29T14:17:36;24.60;97.30
6118;DHT22;3089;48.202;11.510;2023-05-29T14:20:04;24.00;99.00
6118;DHT22;3089;48.202;11.510;2023-05-29T14:22:36;24.30;99.00
6118;DHT22;3089;48.202;11.510;2023-05-29T14:25:05;24.90;96.20
6118;DHT22;3089;48.202;11.510;2023-05-29T14:27:32;23.70;94.90
6118;DHT22;3089;48.202;11.510;2023-05-29T14:30:01;23.90;97.30
6118;DHT22;3089;48.202;11.510;2023-05-29T14:32:29;23.70;97.00
6118;DHT22;3089;48.202;11.510;2023-05-29T14:34:57;23.70;99.00
6118;DHT22;3089;48.202;11.510;2023-05-29T14:37:25;24.40;99.20
6118;DHT22;3089;48.202;11.510;2023-05-29T14:39:54;24.50;98.30
6118;DHT22;3089;48.202;11.510;2023-05-29T14:42:22;24.10;98.20
6118;DHT22;3089;48.202;11.510;2023-05-29T14:44:50;24.50;99.40
6118;DHT22;3089;48.202;11.510;2023-05-29T14:47:18;24.10;97.60
6118;DHT22;3089;48.202;11.510;2023-05-29T14:49:46;23.80;96.90
6118;DHT22;3089;48.202;11.510;2023-05-29T14:52:13;23.90;97.90
6118;DHT22;3089;48.202;11.510;2023-05-29T14:54:41;24.10;97.50
6118;DHT22;3089;48.202;11.510;2023-05-29T14:57:10;23.40;93.90
6118;DHT22;3089;48.202;11.510;2023-05-29T14:59:38;23.10;94.40
6118;DHT22;3089;48.202;11.510;2023-05-29T15:02:06;23.30;95.20
6118;DHT22;3089;48.202;11.510;2023-05-29T15:04:34;23.50;98.00
6118;DHT22;3089;48.202;11.510;2023-05-29T15:07:02;24.10;95.70
6118;DHT22;3089;48.202;11.510;2023-05-29T15:09:32;24.10;98.70
6118;DHT22;3089;48.202;11.510;2023-05-29T15:12:00;24.20;98.00
6118;DHT22;3089;48.202;11.510;2023-05-29T15:14:31;24.10;94.80
6118;DHT22;3089;48.202;11.510;2023-05-29T15:16:59;23.50;97.10
6118;DHT22;3089;48.202;11.510;2023-05-29T15:19:42;23.50;96.80
6118;DHT22;3089;48.202;11.510;2023-05-29T15:22:11;23.70;97.60
6118;DHT22;3089;48.202;11.510;2023-05-29T15:24:39;23.90;96.90
6118;DHT22;3089;48.202;11.510;2023-05-29T15:27:07;23.40;94.50
6118;DHT22;3089;48.202;11.510;2023-05-29T15:29:36;23.10;95.10
6118;DHT22;3089;48.202;11.510;2023-05-29T15:32:05;23.40;97.30
6118;DHT22;3089;48.202;11.510;2023-05-29T15:34:33;23.90;96.00
6118;DHT22;3089;48.202;11.510;2023-05-29T15:37:02;23.20;97.20
6118;DHT22;3089;48.202;11.510;2023-05-29T15:39:30;23.20;92.70
6118;DHT22;3089;48.202;11.510;2023-05-29T15:41:58;23.00;95.30
6118;DHT22;3089;48.202;11.510;2023-05-29T15:44:26;23.00;93.50
6118;DHT22;3089;48.202;11.510;2023-05-29T15:46:55;23.00;93.40
6118;DHT22;3089;48.202;11.510;2023-05-29T15:49:23;23.20;94.00
6118;DHT22;3089;48.202;11.510;2023-05-29T15:51:51;23.40;97.10
6118;DHT22;3089;48.202;11.510;2023-05-29T15:54:19;23.60;96.70
6118;DHT22;3089;48.202;11.510;2023-05-29T15:56:47;23.40;93.40
6118;DHT22;3089;48.202;11.510;2023-05-29T15:59:24;23.30;94.50
6118;DHT22;3089;48.202;11.510;2023-05-29T16:01:59;23.20;94.50